Terminal Aerodrome Forecast
Issued by NWS

Home | Current Version | Previous Version | Text Only | Print | Product List | Glossary On
Versions: 1 2 3 4 5 6 7 8 9 10 11 12 13 14 15 16 17 18 19 20 21 22 23 24 25 26 27 28 29 30 31 32 33 34 35 36 37 38 39 40 41 42 43 44 45 46 47 48 49 50
000
FTUS44 KHGX 261134
TAFIAH
TAF
KIAH 261134Z 2612/2718 20003KT 6SM BR OVC008
      TEMPO 2614/2617 SCT012
     FM261700 13005KT P6SM FEW015 SCT120
     FM261900 16012KT P6SM FEW040 BKN150
     FM270300 14008KT 6SM BR SCT020
     FM270600 13010KT 5SM BR SCT006 BKN012
     FM271500 15009KT P6SM VCTS BKN020 BKN040CB=

USA.gov is the U.S. government's official web portal to all federal, state and local government web resources and services.